Time;durP1;ratioP1;P1;durP2;ratioP2;P2;SDS_P1;SDS_P2;PMS_P1;PMS_P2;Temp;Humidity;BMP_temperature;BMP_pressure;BME280_temperature;BME280_humidity;BME280_pressure;Samples;Min_cycle;Max_cycle;Signal;HPM_P1;HPM_P2
2022/01/19 00:01:51;;;;;;;10.37;7.03;;;9.60;52.40;;;;;;5054890;28;20192;-51
2022/01/19 00:04:17;;;;;;;10.73;6.97;;;9.60;51.70;;;;;;5051900;28;20184;-50
2022/01/19 00:06:42;;;;;;;6.70;6.00;;;9.60;51.60;;;;;;5045098;28;20220;-51
2022/01/19 00:09:08;;;;;;;7.60;6.60;;;9.60;51.50;;;;;;5053221;28;20200;-50
2022/01/19 00:11:33;;;;;;;10.30;6.30;;;9.60;51.50;;;;;;5048960;28;20203;-49
2022/01/19 00:13:59;;;;;;;8.60;6.70;;;9.60;51.50;;;;;;5047557;28;20205;-50
2022/01/19 00:16:25;;;;;;;7.27;6.30;;;9.60;51.30;;;;;;5041288;28;20265;-52
2022/01/19 00:18:50;;;;;;;7.10;5.73;;;9.50;51.20;;;;;;5041943;28;20211;-54
2022/01/19 00:21:16;;;;;;;7.50;6.70;;;9.50;51.10;;;;;;5040143;28;20184;-50
2022/01/19 00:23:41;;;;;;;9.03;6.90;;;9.40;51.00;;;;;;5038155;28;20671;-52
2022/01/19 00:26:07;;;;;;;6.50;5.80;;;9.30;51.30;;;;;;5040827;28;20625;-50
2022/01/19 00:28:33;;;;;;;7.83;6.33;;;9.30;51.50;;;;;;5045144;28;20269;-51
2022/01/19 00:30:58;;;;;;;10.83;7.53;;;9.30;52.00;;;;;;5048543;28;20271;-49
2022/01/19 00:33:24;;;;;;;10.17;7.20;;;9.20;51.90;;;;;;5050320;28;20570;-49
2022/01/19 00:35:51;;;;;;;7.90;6.27;;;9.10;52.10;;;;;;5052891;28;20196;-53
2022/01/19 00:38:17;;;;;;;6.43;5.80;;;9.10;52.20;;;;;;5049153;28;20454;-52
2022/01/19 00:40:43;;;;;;;8.27;7.10;;;9.10;52.20;;;;;;5050808;28;20439;-53
2022/01/19 00:43:09;;;;;;;10.77;7.17;;;9.10;52.30;;;;;;5049053;28;20442;-49
2022/01/19 00:45:35;;;;;;;10.40;6.50;;;9.10;52.20;;;;;;5050466;28;20490;-53
2022/01/19 00:48:01;;;;;;;10.27;6.47;;;9.10;52.40;;;;;;5051562;28;20211;-51
2022/01/19 00:50:29;;;;;;;9.67;8.07;;;9.10;52.70;;;;;;5041992;28;20196;-52
2022/01/19 00:52:55;;;;;;;9.77;8.30;;;9.10;52.80;;;;;;5045440;28;20755;-54
2022/01/19 00:55:24;;;;;;;9.23;7.23;;;9.10;52.80;;;;;;5046669;28;20473;-52
2022/01/19 00:57:50;;;;;;;9.37;7.07;;;9.10;52.70;;;;;;5039767;28;20447;-52
2022/01/19 01:00:19;;;;;;;8.07;6.73;;;9.10;52.60;;;;;;5046308;28;20677;-49
2022/01/19 01:02:45;;;;;;;9.17;7.67;;;9.10;52.50;;;;;;5051880;28;20596;-49
2022/01/19 01:05:11;;;;;;;7.23;6.40;;;9.00;52.30;;;;;;5052306;28;21442;-53
2022/01/19 01:07:38;;;;;;;8.33;6.63;;;9.00;52.30;;;;;;5046370;28;20439;-52
2022/01/19 01:10:06;;;;;;;9.07;8.07;;;9.00;52.30;;;;;;5054527;28;20477;-50
2022/01/19 01:12:44;;;;;;;9.90;6.23;;;9.00;52.30;;;;;;5043297;28;20812;-53
2022/01/19 01:20:30;;;;;;;9.20;7.30;;;8.80;52.10;;;;;;5049086;28;20483;-53
2022/01/19 01:22:56;;;;;;;9.20;7.00;;;8.80;52.30;;;;;;5034532;28;20443;-51
2022/01/19 01:25:21;;;;;;;9.23;7.20;;;8.60;52.40;;;;;;5046341;28;21004;-49
2022/01/19 01:27:47;;;;;;;7.87;7.00;;;8.60;52.40;;;;;;5047530;28;20288;-52
2022/01/19 01:30:13;;;;;;;10.47;8.07;;;8.50;52.40;;;;;;5050250;28;20199;-53
2022/01/19 01:32:38;;;;;;;10.63;8.47;;;8.50;52.30;;;;;;5048045;28;20200;-53
2022/01/19 01:35:05;;;;;;;13.27;7.83;;;8.40;52.20;;;;;;5050234;28;20224;-51
2022/01/19 01:37:30;;;;;;;11.40;9.10;;;8.40;52.30;;;;;;5036613;28;20208;-52
2022/01/19 01:39:56;;;;;;;9.73;7.03;;;8.30;52.60;;;;;;5043883;28;20447;-53
2022/01/19 01:42:23;;;;;;;13.00;7.83;;;8.30;52.70;;;;;;5048708;28;20185;-55
2022/01/19 01:44:52;;;;;;;10.37;7.50;;;8.30;52.80;;;;;;5049254;28;20277;-54
2022/01/19 01:47:19;;;;;;;14.50;8.23;;;8.20;53.00;;;;;;5046358;28;20451;-53
2022/01/19 01:55:11;;;;;;;10.20;7.60;;;8.20;53.00;;;;;;5043706;28;20551;-52
2022/01/19 01:57:37;;;;;;;11.30;7.50;;;8.20;52.90;;;;;;5044483;28;20446;-53
2022/01/19 02:00:06;;;;;;;8.07;7.10;;;8.30;53.00;;;;;;5045353;28;20803;-54
2022/01/19 02:02:32;;;;;;;13.03;8.33;;;8.20;52.90;;;;;;5055136;28;20195;-54
2022/01/19 02:04:58;;;;;;;11.40;7.07;;;8.10;53.00;;;;;;5047901;28;20539;-52
2022/01/19 02:10:19;;;;;;;10.17;6.97;;;8.00;53.10;;;;;;5047287;28;20211;-54
2022/01/19 02:23:48;;;;;;;12.90;8.20;;;7.90;52.70;;;;;;5049452;28;20976;-53
2022/01/19 02:26:22;;;;;;;12.90;8.83;;;7.90;52.80;;;;;;5040808;28;20497;-54
2022/01/19 02:29:15;;;;;;;11.10;7.33;;;7.80;52.70;;;;;;5042291;28;21006;-53
2022/01/19 02:40:11;;;;;;;8.17;6.13;;;7.40;54.20;;;;;;5043549;28;20450;-53
2022/01/19 02:42:44;;;;;;;14.73;7.30;;;7.30;54.30;;;;;;5036840;28;20284;-49
2022/01/19 02:50:26;;;;;;;10.93;6.80;;;7.40;54.20;;;;;;5047999;28;20445;-49
2022/01/19 02:52:51;;;;;;;14.30;6.57;;;7.30;54.30;;;;;;5047750;28;20439;-51
2022/01/19 02:55:17;;;;;;;10.37;6.30;;;7.30;54.50;;;;;;5046087;28;20931;-49
2022/01/19 02:57:45;;;;;;;11.77;7.67;;;7.30;54.40;;;;;;5047707;28;20189;-55
2022/01/19 03:08:44;;;;;;;9.37;7.47;;;7.10;54.70;;;;;;5043503;28;20503;-50
2022/01/19 03:11:17;;;;;;;11.53;7.90;;;7.20;54.60;;;;;;5034152;28;21434;-49
2022/01/19 03:13:45;;;;;;;8.27;7.00;;;7.20;54.50;;;;;;5041070;28;20937;-50
2022/01/19 03:16:11;;;;;;;9.10;7.17;;;7.10;54.50;;;;;;5052368;28;20446;-51
2022/01/19 03:18:37;;;;;;;11.87;8.70;;;7.00;54.90;;;;;;5055270;28;20457;-50
2022/01/19 03:21:05;;;;;;;9.97;8.23;;;7.00;54.80;;;;;;5050909;28;20659;-49
2022/01/19 03:23:31;;;;;;;13.60;8.57;;;7.10;54.80;;;;;;5049515;28;20201;-50
2022/01/19 03:25:58;;;;;;;11.30;7.60;;;7.00;55.00;;;;;;5048962;28;20505;-49
2022/01/19 03:28:23;;;;;;;12.67;8.17;;;7.00;55.00;;;;;;5050897;28;20196;-50
2022/01/19 03:30:49;;;;;;;9.40;7.27;;;6.90;54.90;;;;;;5045922;28;20765;-51
2022/01/19 03:33:15;;;;;;;12.57;7.20;;;6.80;55.10;;;;;;5046368;28;20211;-50
2022/01/19 03:35:41;;;;;;;10.60;7.27;;;6.80;55.40;;;;;;5044269;28;20244;-50
2022/01/19 03:38:08;;;;;;;12.00;7.03;;;6.80;55.40;;;;;;5049858;28;20785;-52
2022/01/19 03:40:34;;;;;;;10.47;7.57;;;6.60;55.80;;;;;;5057921;28;20491;-54
2022/01/19 03:43:00;;;;;;;10.00;7.67;;;6.40;56.20;;;;;;5049134;28;20438;-51
2022/01/19 03:45:26;;;;;;;11.40;8.03;;;6.30;56.70;;;;;;5047791;28;20845;-50
2022/01/19 03:48:06;;;;;;;9.93;7.60;;;6.20;57.00;;;;;;5045438;28;20197;-53
2022/01/19 03:50:33;;;;;;;12.73;8.50;;;6.00;57.50;;;;;;5054794;28;20189;-50
2022/01/19 03:52:59;;;;;;;11.10;7.43;;;5.90;58.40;;;;;;5050808;28;21005;-49
2022/01/19 03:55:24;;;;;;;12.13;7.30;;;6.00;58.20;;;;;;5051346;28;20438;-50
2022/01/19 03:57:50;;;;;;;11.23;7.43;;;5.90;58.30;;;;;;5054690;28;20202;-50
2022/01/19 04:00:16;;;;;;;11.07;8.27;;;5.90;58.40;;;;;;5057996;28;20538;-50
2022/01/19 04:02:41;;;;;;;9.30;8.13;;;5.70;58.70;;;;;;5041888;28;20641;-50
2022/01/19 04:05:17;;;;;;;11.07;7.60;;;5.00;59.80;;;;;;5050535;28;22104;-50
2022/01/19 04:07:42;;;;;;;13.77;7.80;;;4.70;62.20;;;;;;5043984;28;20245;-51
2022/01/19 04:10:08;;;;;;;11.37;8.07;;;4.70;62.70;;;;;;5053074;28;20484;-50
2022/01/19 04:15:10;;;;;;;9.37;7.30;;;5.30;61.70;;;;;;5041129;28;20516;-50
2022/01/19 04:17:37;;;;;;;9.10;7.40;;;5.60;60.30;;;;;;5041670;28;20857;-50
2022/01/19 04:20:03;;;;;;;10.20;7.37;;;5.70;59.40;;;;;;5059291;28;20487;-51
2022/01/19 04:22:28;;;;;;;10.70;7.97;;;5.70;59.30;;;;;;5051679;28;21278;-50
2022/01/19 04:24:54;;;;;;;15.00;8.50;;;5.60;59.10;;;;;;5039275;28;20531;-49
2022/01/19 04:30:09;;;;;;;14.80;8.20;;;5.90;58.80;;;;;;5050115;28;20196;-52
2022/01/19 04:35:08;;;;;;;14.23;8.60;;;6.00;57.90;;;;;;5056912;28;20469;-52
2022/01/19 05:01:59;;;;;;;12.10;8.20;;;6.00;57.90;;;;;;5048684;28;20454;-50
2022/01/19 05:04:47;;;;;;;9.90;6.90;;;6.10;57.80;;;;;;5050939;28;20569;-51
2022/01/19 05:14:48;;;;;;;9.70;7.63;;;6.20;56.80;;;;;;5047447;28;22190;-53
2022/01/19 05:17:13;;;;;;;11.13;7.60;;;6.10;56.90;;;;;;5044553;28;20436;-51
2022/01/19 05:19:39;;;;;;;10.20;7.70;;;6.00;57.10;;;;;;5039493;28;20568;-51
2022/01/19 05:22:05;;;;;;;11.00;8.13;;;5.80;57.50;;;;;;5049365;28;20200;-51
2022/01/19 05:24:30;;;;;;;8.60;7.27;;;5.70;58.10;;;;;;5046816;28;20192;-52
2022/01/19 05:26:56;;;;;;;12.50;7.43;;;5.50;58.40;;;;;;5047824;28;20227;-52
2022/01/19 05:29:22;;;;;;;10.40;8.10;;;5.40;58.90;;;;;;5043300;28;20224;-53
2022/01/19 05:31:47;;;;;;;10.80;7.70;;;5.40;59.30;;;;;;5044497;28;20204;-49
2022/01/19 05:34:13;;;;;;;12.00;8.37;;;5.40;59.20;;;;;;5050090;28;20626;-50
2022/01/19 05:36:38;;;;;;;11.50;9.17;;;5.40;59.30;;;;;;5039558;28;20201;-51
2022/01/19 05:39:05;;;;;;;11.67;7.80;;;5.50;59.20;;;;;;5041638;28;20323;-49
2022/01/19 05:41:32;;;;;;;11.37;8.90;;;5.50;58.70;;;;;;5041338;28;20540;-52
2022/01/19 05:43:57;;;;;;;12.03;9.30;;;5.50;58.90;;;;;;5043305;28;20431;-50
2022/01/19 05:46:23;;;;;;;13.07;9.30;;;5.60;58.60;;;;;;5038918;28;20556;-50
2022/01/19 05:48:49;;;;;;;12.83;9.07;;;5.70;58.40;;;;;;5053267;28;20197;-49
2022/01/19 05:51:14;;;;;;;14.07;7.87;;;5.60;58.50;;;;;;5032095;28;20200;-50
2022/01/19 05:53:40;;;;;;;12.13;8.43;;;5.60;58.60;;;;;;5048331;28;20200;-50
2022/01/19 05:56:06;;;;;;;12.67;8.20;;;5.60;58.20;;;;;;5046513;28;20275;-51
2022/01/19 05:58:32;;;;;;;14.70;8.63;;;5.70;58.10;;;;;;5042158;28;20197;-51
2022/01/19 06:00:58;;;;;;;8.50;7.13;;;5.80;57.90;;;;;;5045834;28;20477;-50
2022/01/19 06:03:24;;;;;;;17.07;7.67;;;5.80;57.90;;;;;;5055241;28;20647;-50
2022/01/19 06:05:50;;;;;;;9.50;7.53;;;5.70;57.80;;;;;;5048039;28;20516;-50
2022/01/19 06:10:54;;;;;;;12.00;7.47;;;5.60;58.20;;;;;;5044895;28;20202;-50
2022/01/19 06:13:22;;;;;;;15.67;9.20;;;5.50;58.30;;;;;;5036715;28;20469;-50
2022/01/19 06:15:49;;;;;;;15.63;8.70;;;5.60;58.30;;;;;;5044086;28;20446;-49
2022/01/19 06:18:16;;;;;;;18.10;8.10;;;5.60;58.00;;;;;;5036409;28;20826;-49
2022/01/19 06:20:42;;;;;;;12.60;7.53;;;5.70;59.50;;;;;;5059299;28;20485;-50
2022/01/19 06:23:08;;;;;;;16.30;7.37;;;6.10;61.20;;;;;;5050779;28;20446;-52
2022/01/19 06:25:34;;;;;;;11.33;7.83;;;6.60;62.50;;;;;;5039818;28;20610;-50
2022/01/19 06:28:00;;;;;;;10.90;7.87;;;7.10;62.30;;;;;;5039124;28;20519;-53
2022/01/19 06:30:26;;;;;;;11.00;8.33;;;7.30;59.50;;;;;;5045918;28;20452;-53
2022/01/19 06:32:52;;;;;;;12.53;8.13;;;7.70;58.70;;;;;;5047929;28;20201;-53
2022/01/19 06:35:18;;;;;;;10.60;7.77;;;7.90;57.80;;;;;;5044450;28;20850;-51
2022/01/19 06:37:44;;;;;;;12.80;8.23;;;8.20;56.70;;;;;;5048590;28;20444;-51
2022/01/19 06:40:13;;;;;;;11.37;8.20;;;8.30;55.20;;;;;;5039992;28;20439;-53
2022/01/19 06:42:39;;;;;;;11.70;7.20;;;8.30;54.30;;;;;;5036625;28;20239;-50
2022/01/19 06:45:06;;;;;;;18.90;7.60;;;8.40;54.00;;;;;;5042978;28;20462;-53
2022/01/19 06:47:32;;;;;;;11.30;8.33;;;8.50;53.60;;;;;;5045860;28;20889;-50
2022/01/19 06:49:58;;;;;;;16.23;8.40;;;8.70;53.10;;;;;;5053053;28;20807;-54
2022/01/19 06:52:24;;;;;;;13.17;9.57;;;8.80;52.60;;;;;;5049380;28;20431;-49
2022/01/19 06:54:49;;;;;;;17.90;8.67;;;8.80;51.70;;;;;;5039368;28;20428;-54
2022/01/19 06:57:15;;;;;;;12.30;9.00;;;8.80;51.20;;;;;;5044134;28;20494;-54
2022/01/19 06:59:41;;;;;;;12.03;8.50;;;8.90;51.60;;;;;;5042923;28;20274;-53
2022/01/19 07:02:07;;;;;;;10.73;7.73;;;8.90;51.40;;;;;;5039679;28;20212;-54
2022/01/19 07:04:33;;;;;;;16.20;9.37;;;9.10;51.30;;;;;;5052019;28;20275;-54
2022/01/19 07:06:58;;;;;;;16.00;10.10;;;9.00;51.10;;;;;;5043176;28;21304;-53
2022/01/19 07:09:24;;;;;;;13.23;9.60;;;9.10;50.70;;;;;;5052421;28;20212;-50
2022/01/19 07:11:50;;;;;;;24.83;10.30;;;9.10;50.50;;;;;;5047364;28;20200;-53
2022/01/19 07:14:17;;;;;;;14.30;9.80;;;9.10;50.70;;;;;;5041404;28;20195;-50
2022/01/19 07:16:44;;;;;;;13.03;8.90;;;9.20;50.50;;;;;;5047535;28;20432;-54
2022/01/19 07:19:12;;;;;;;12.80;8.70;;;9.20;50.10;;;;;;5048539;28;20471;-51
2022/01/19 07:21:38;;;;;;;11.93;9.13;;;9.30;49.80;;;;;;5052669;28;20538;-54
2022/01/19 07:24:03;;;;;;;12.37;9.37;;;9.20;49.90;;;;;;5042956;28;20546;-50
2022/01/19 07:26:29;;;;;;;12.07;9.73;;;9.20;49.90;;;;;;5041438;28;20232;-53
2022/01/19 07:28:55;;;;;;;14.47;9.90;;;9.20;49.80;;;;;;5042261;28;20269;-51
2022/01/19 07:31:21;;;;;;;13.90;9.60;;;9.20;49.60;;;;;;5043551;28;20273;-53
2022/01/19 07:33:46;;;;;;;15.60;9.00;;;9.10;50.10;;;;;;5053934;28;20431;-51
2022/01/19 07:36:12;;;;;;;11.20;8.07;;;9.20;50.40;;;;;;5042837;28;20202;-54
2022/01/19 07:38:38;;;;;;;11.30;9.07;;;9.30;50.10;;;;;;5039431;28;20208;-53
2022/01/19 07:41:03;;;;;;;11.83;10.10;;;9.40;49.70;;;;;;5047573;28;20188;-49
2022/01/19 07:43:29;;;;;;;11.73;9.73;;;9.70;49.50;;;;;;5042761;28;20232;-50
2022/01/19 07:45:54;;;;;;;17.13;11.30;;;10.20;47.60;;;;;;5052352;28;20270;-51
2022/01/19 07:48:20;;;;;;;18.30;11.23;;;10.80;46.80;;;;;;5050994;28;20193;-51
2022/01/19 07:50:46;;;;;;;11.57;10.37;;;11.40;45.70;;;;;;5046512;28;20219;-52
2022/01/19 07:53:11;;;;;;;19.80;10.20;;;12.00;43.90;;;;;;5045697;28;20211;-49
2022/01/19 07:55:37;;;;;;;13.63;9.80;;;12.50;43.10;;;;;;5048140;28;20196;-49
2022/01/19 07:58:03;;;;;;;21.23;10.77;;;13.00;41.90;;;;;;5042585;28;20200;-50
2022/01/19 08:00:29;;;;;;;12.47;9.63;;;13.50;41.10;;;;;;5033999;28;20201;-50
2022/01/19 08:02:55;;;;;;;12.70;9.97;;;13.90;40.50;;;;;;5053359;28;20476;-51
2022/01/19 08:05:21;;;;;;;15.63;10.97;;;14.10;39.70;;;;;;5035454;28;20570;-48
2022/01/19 08:07:47;;;;;;;11.53;9.87;;;14.30;39.40;;;;;;5045584;28;20197;-47
2022/01/19 08:10:13;;;;;;;11.77;10.23;;;14.20;39.10;;;;;;5044267;28;20446;-48
2022/01/19 08:12:38;;;;;;;11.60;9.53;;;13.80;39.50;;;;;;5046377;28;20664;-49
2022/01/19 08:15:05;;;;;;;12.03;10.73;;;13.70;40.20;;;;;;5050475;28;20443;-48
2022/01/19 08:17:31;;;;;;;12.40;10.60;;;13.60;40.50;;;;;;5050218;28;20591;-49
2022/01/19 08:19:57;;;;;;;13.50;10.53;;;13.20;40.70;;;;;;5047578;28;20840;-49
2022/01/19 08:22:24;;;;;;;10.80;9.23;;;13.00;41.30;;;;;;5048287;28;20439;-49
2022/01/19 08:24:50;;;;;;;13.30;9.67;;;12.60;41.90;;;;;;5047784;28;20513;-48
2022/01/19 08:27:17;;;;;;;17.53;10.83;;;12.00;42.80;;;;;;5043768;28;20435;-48
2022/01/19 08:29:42;;;;;;;14.17;10.13;;;11.60;43.60;;;;;;5050501;28;20439;-51
2022/01/19 08:32:08;;;;;;;13.13;11.33;;;11.10;44.70;;;;;;5045796;28;20959;-53
2022/01/19 08:34:34;;;;;;;11.63;9.93;;;10.80;45.70;;;;;;5050865;28;20200;-53
2022/01/19 08:37:01;;;;;;;15.87;11.50;;;10.50;46.40;;;;;;5043041;28;20443;-53
2022/01/19 08:39:27;;;;;;;14.13;9.27;;;10.20;47.50;;;;;;5049289;28;20431;-54
2022/01/19 08:41:53;;;;;;;11.90;10.00;;;10.10;47.80;;;;;;5037699;28;20794;-52
2022/01/19 08:44:20;;;;;;;14.13;10.17;;;9.80;48.90;;;;;;5052804;28;20258;-55
2022/01/19 08:46:46;;;;;;;14.43;10.10;;;9.70;49.30;;;;;;5052808;28;20564;-52
2022/01/19 08:49:12;;;;;;;12.53;10.17;;;9.50;49.20;;;;;;5044576;28;20488;-51
2022/01/19 08:51:38;;;;;;;12.77;10.00;;;9.50;49.80;;;;;;5043265;28;21107;-54
2022/01/19 08:54:04;;;;;;;11.80;9.60;;;9.70;50.10;;;;;;5048451;28;20471;-55
2022/01/19 08:56:29;;;;;;;14.77;10.30;;;9.80;49.90;;;;;;5045531;28;20199;-54
2022/01/19 08:58:56;;;;;;;14.20;9.83;;;9.90;49.80;;;;;;5045467;28;20323;-50
2022/01/19 09:01:22;;;;;;;13.47;9.90;;;10.10;48.70;;;;;;5037259;28;20486;-49
2022/01/19 09:03:48;;;;;;;15.30;11.50;;;10.20;48.20;;;;;;5041184;28;20424;-52
2022/01/19 09:06:14;;;;;;;16.60;10.27;;;10.30;48.20;;;;;;5042757;28;20626;-53
2022/01/19 09:08:40;;;;;;;11.53;9.50;;;10.50;48.00;;;;;;5039857;28;20517;-55
2022/01/19 09:11:06;;;;;;;11.67;9.37;;;10.50;47.60;;;;;;5037321;28;20212;-54
2022/01/19 09:13:32;;;;;;;12.40;9.90;;;10.50;47.30;;;;;;5045041;28;20287;-54
2022/01/19 09:15:58;;;;;;;11.83;9.70;;;10.50;47.10;;;;;;5050703;28;20451;-57
2022/01/19 09:18:24;;;;;;;15.50;11.10;;;10.60;47.10;;;;;;5039830;28;20776;-55
2022/01/19 09:20:49;;;;;;;13.13;11.00;;;10.70;47.30;;;;;;5048491;28;20592;-54
2022/01/19 09:23:15;;;;;;;14.53;9.43;;;10.70;47.00;;;;;;5048509;28;20208;-53
2022/01/19 09:25:41;;;;;;;16.20;11.33;;;10.70;46.90;;;;;;5039414;28;20232;-51
2022/01/19 09:28:07;;;;;;;9.83;8.83;;;10.70;47.10;;;;;;5042652;28;20683;-50
2022/01/19 09:30:34;;;;;;;13.23;10.43;;;10.80;47.20;;;;;;5040095;28;20641;-51
2022/01/19 09:33:08;;;;;;;11.63;10.43;;;11.00;47.00;;;;;;5039389;28;20454;-54
2022/01/19 09:36:05;;;;;;;14.20;10.47;;;11.20;46.80;;;;;;5041577;28;20432;-51
2022/01/19 09:38:34;;;;;;;12.83;9.20;;;11.30;46.30;;;;;;5040348;28;20439;-48
2022/01/19 09:40:59;;;;;;;14.13;10.20;;;11.20;46.20;;;;;;5041909;28;20461;-50
2022/01/19 09:43:26;;;;;;;12.00;8.63;;;11.40;46.20;;;;;;5036292;28;20424;-54
2022/01/19 09:45:54;;;;;;;14.30;10.50;;;11.40;46.10;;;;;;5037155;28;20609;-49
2022/01/19 09:48:20;;;;;;;11.20;9.40;;;11.70;46.10;;;;;;5042182;28;20439;-49
2022/01/19 09:50:47;;;;;;;12.87;10.80;;;11.90;45.40;;;;;;5039793;28;20443;-52
2022/01/19 09:53:13;;;;;;;11.23;8.97;;;12.20;45.00;;;;;;5043926;28;20587;-49
2022/01/19 09:55:39;;;;;;;13.03;10.17;;;12.00;44.60;;;;;;5040190;28;20447;-49
2022/01/19 09:58:06;;;;;;;15.13;11.63;;;12.30;44.50;;;;;;5041659;28;20212;-48
2022/01/19 10:00:32;;;;;;;11.73;9.50;;;12.60;44.00;;;;;;5035925;28;20436;-48
2022/01/19 10:03:21;;;;;;;14.30;11.13;;;12.80;43.50;;;;;;5033224;28;20444;-47
2022/01/19 10:05:57;;;;;;;14.40;10.30;;;13.00;43.40;;;;;;5038177;28;20488;-50
2022/01/19 10:08:31;;;;;;;11.40;9.93;;;13.30;42.70;;;;;;5035857;28;20474;-48
2022/01/19 10:17:00;;;;;;;12.60;10.17;;;13.50;42.20;;;;;;5029374;28;20463;-49
2022/01/19 10:19:44;;;;;;;12.30;10.07;;;13.70;41.80;;;;;;5039569;28;20479;-49
2022/01/19 10:22:14;;;;;;;12.47;9.90;;;13.80;41.30;;;;;;5045189;28;20435;-49
2022/01/19 10:24:50;;;;;;;10.93;9.83;;;13.40;41.50;;;;;;5031909;28;20432;-49
2022/01/19 10:27:40;;;;;;;10.53;9.43;;;13.40;41.90;;;;;;5041512;28;20984;-51
2022/01/19 10:30:06;;;;;;;15.83;9.47;;;12.80;41.90;;;;;;5032841;28;20489;-50
2022/01/19 10:32:36;;;;;;;15.87;10.30;;;12.80;43.00;;;;;;5046131;28;20434;-54
2022/01/19 10:35:22;;;;;;;13.37;10.13;;;13.10;42.80;;;;;;5043468;28;20202;-54
2022/01/19 10:38:09;;;;;;;11.33;9.17;;;13.40;42.20;;;;;;5039428;28;20605;-53
2022/01/19 10:40:37;;;;;;;11.23;9.67;;;13.50;41.80;;;;;;5035529;28;20490;-54
2022/01/19 10:43:24;;;;;;;12.30;9.40;;;13.70;41.90;;;;;;5044783;28;20542;-53
2022/01/19 10:45:49;;;;;;;13.40;10.10;;;13.90;41.60;;;;;;5042267;28;20896;-51
2022/01/19 10:48:34;;;;;;;11.43;10.07;;;14.00;41.50;;;;;;5044161;28;20431;-53
2022/01/19 10:51:14;;;;;;;10.73;9.30;;;14.10;40.90;;;;;;5043323;28;20200;-54
2022/01/19 10:53:44;;;;;;;10.60;9.00;;;14.20;41.10;;;;;;5038404;28;20874;-51
2022/01/19 10:56:40;;;;;;;10.50;9.37;;;14.40;40.80;;;;;;5038367;28;20519;-52
2022/01/19 10:59:10;;;;;;;12.20;10.00;;;14.40;40.70;;;;;;5029887;28;20440;-54
2022/01/19 11:01:45;;;;;;;10.43;9.30;;;14.50;40.50;;;;;;5043415;28;20509;-52
2022/01/19 11:04:23;;;;;;;10.60;8.60;;;14.50;39.80;;;;;;5035014;28;20957;-54
2022/01/19 11:06:57;;;;;;;10.37;9.27;;;14.40;40.00;;;;;;5037678;28;20489;-53
2022/01/19 11:09:25;;;;;;;11.77;9.87;;;14.60;40.00;;;;;;5035923;28;20453;-54
2022/01/19 11:11:53;;;;;;;13.10;8.70;;;14.50;38.80;;;;;;5037855;28;20436;-52
2022/01/19 11:14:19;;;;;;;9.70;7.80;;;14.50;39.60;;;;;;5039930;28;20431;-49
2022/01/19 11:16:47;;;;;;;9.77;8.43;;;14.60;40.10;;;;;;5032896;28;20438;-52
2022/01/19 11:19:13;;;;;;;10.37;8.47;;;14.70;39.20;;;;;;5045739;28;20323;-49
2022/01/19 11:22:04;;;;;;;10.43;9.33;;;15.00;39.30;;;;;;5048314;28;20841;-53
2022/01/19 11:24:42;;;;;;;11.67;8.10;;;15.20;38.90;;;;;;5036056;28;20447;-54
2022/01/19 11:27:08;;;;;;;8.90;7.50;;;15.20;38.50;;;;;;5072763;28;20491;-53
2022/01/19 11:29:36;;;;;;;11.00;8.07;;;15.20;38.50;;;;;;5039169;28;20479;-51
2022/01/19 11:32:14;;;;;;;11.17;8.20;;;15.20;38.10;;;;;;5033858;28;20442;-52
2022/01/19 11:34:47;;;;;;;9.70;8.70;;;15.20;38.20;;;;;;5044293;28;20427;-50
2022/01/19 11:37:15;;;;;;;11.20;9.97;;;15.20;38.40;;;;;;5036816;28;20440;-51
2022/01/19 11:40:01;;;;;;;13.73;9.03;;;15.20;38.30;;;;;;5034865;28;20442;-49
2022/01/19 11:42:27;;;;;;;13.03;9.10;;;15.00;38.30;;;;;;5042685;28;20942;-49
2022/01/19 11:44:52;;;;;;;10.13;8.67;;;14.90;39.30;;;;;;5041308;28;20489;-50
2022/01/19 11:47:25;;;;;;;10.40;8.03;;;14.70;40.20;;;;;;5045011;28;20224;-50
2022/01/19 11:49:57;;;;;;;13.50;8.73;;;14.60;40.30;;;;;;5051453;28;20189;-51
2022/01/19 11:52:28;;;;;;;11.77;9.20;;;14.70;40.40;;;;;;5037448;28;20440;-50
2022/01/19 11:55:12;;;;;;;10.20;9.03;;;14.80;39.90;;;;;;5041755;28;20784;-50
2022/01/19 11:57:40;;;;;;;12.43;9.47;;;14.70;40.60;;;;;;5039066;28;20440;-51
2022/01/19 12:00:09;;;;;;;11.10;9.90;;;14.70;40.50;;;;;;5039116;28;20451;-50
2022/01/19 12:02:40;;;;;;;13.40;10.07;;;14.70;40.20;;;;;;5042764;28;20514;-51
2022/01/19 12:05:07;;;;;;;14.33;10.40;;;14.70;41.10;;;;;;5041871;28;20435;-49
2022/01/19 12:07:40;;;;;;;9.80;8.90;;;14.80;41.60;;;;;;5049054;28;20447;-50
2022/01/19 12:10:14;;;;;;;11.77;9.40;;;14.70;41.10;;;;;;5038068;28;20440;-50
2022/01/19 12:12:55;;;;;;;12.77;10.47;;;14.70;41.50;;;;;;5049043;28;20470;-50
2022/01/19 12:15:46;;;;;;;12.70;10.83;;;14.50;41.60;;;;;;5040095;28;20808;-49
2022/01/19 12:18:38;;;;;;;12.47;10.20;;;14.50;41.80;;;;;;5048977;28;20508;-50
2022/01/19 12:21:04;;;;;;;15.23;10.97;;;14.70;41.60;;;;;;5044520;28;20971;-50
2022/01/19 12:23:31;;;;;;;14.93;12.60;;;14.60;41.10;;;;;;5039679;28;20493;-50
2022/01/19 12:26:02;;;;;;;13.97;10.87;;;14.60;41.70;;;;;;5038931;28;20237;-50
2022/01/19 12:28:45;;;;;;;15.57;12.10;;;14.50;41.90;;;;;;5045886;28;20440;-50
2022/01/19 12:31:30;;;;;;;13.20;11.20;;;14.50;42.60;;;;;;5036935;28;21050;-50
2022/01/19 12:34:04;;;;;;;13.83;10.97;;;14.50;42.70;;;;;;5047193;28;20438;-50
2022/01/19 12:36:59;;;;;;;14.17;11.37;;;14.50;42.70;;;;;;5041375;28;20430;-51
2022/01/19 12:39:25;;;;;;;13.93;11.00;;;14.70;42.40;;;;;;5035184;28;20446;-50
2022/01/19 12:42:05;;;;;;;11.17;9.30;;;14.80;42.20;;;;;;5036931;28;20439;-48
2022/01/19 12:44:53;;;;;;;12.00;10.10;;;14.80;41.70;;;;;;5056444;28;20201;-49
2022/01/19 12:47:27;;;;;;;11.40;8.83;;;14.90;41.80;;;;;;5048875;28;20489;-48
2022/01/19 12:50:08;;;;;;;9.60;8.60;;;14.80;41.10;;;;;;5044247;28;20439;-53
2022/01/19 12:52:44;;;;;;;11.27;7.97;;;14.90;41.20;;;;;;5053805;28;22410;-49
2022/01/19 12:55:10;;;;;;;10.27;8.10;;;14.90;40.40;;;;;;5039805;28;20518;-48
2022/01/19 12:57:36;;;;;;;8.80;7.93;;;14.90;40.30;;;;;;5051418;28;20936;-48
2022/01/19 13:00:07;;;;;;;11.20;8.33;;;15.00;39.90;;;;;;5052799;28;20663;-48
2022/01/19 13:02:33;;;;;;;11.93;8.20;;;15.10;39.70;;;;;;5040880;28;20192;-48
2022/01/19 13:05:08;;;;;;;9.17;7.20;;;15.00;39.60;;;;;;5056007;28;20442;-49
2022/01/19 13:07:37;;;;;;;8.63;7.40;;;14.80;39.60;;;;;;5047285;28;20452;-49
2022/01/19 13:10:33;;;;;;;9.40;7.53;;;14.70;39.50;;;;;;5048111;28;20982;-52
2022/01/19 13:13:13;;;;;;;11.43;7.57;;;14.50;40.90;;;;;;5040126;28;20800;-47
2022/01/19 13:15:59;;;;;;;9.50;8.30;;;14.40;40.30;;;;;;5072653;23;20571;-50
2022/01/19 13:18:33;;;;;;;8.73;7.83;;;14.50;40.40;;;;;;5005292;28;20502;-46
2022/01/19 13:21:03;;;;;;;8.70;7.80;;;14.60;40.10;;;;;;5007614;28;20479;-58
2022/01/19 13:23:31;;;;;;;9.90;7.90;;;14.60;40.20;;;;;;5002250;28;20905;-57
2022/01/19 13:26:06;;;;;;;10.33;7.90;;;14.60;40.20;;;;;;5002742;28;21666;-57
2022/01/19 13:28:34;;;;;;;9.27;7.67;;;14.50;40.20;;;;;;5003331;28;20467;-59
2022/01/19 13:31:23;;;;;;;12.20;7.83;;;14.40;40.60;;;;;;5003676;28;20437;-59
2022/01/19 13:34:07;;;;;;;9.53;8.20;;;14.40;40.70;;;;;;4999430;28;20449;-58
2022/01/19 13:36:35;;;;;;;9.47;8.47;;;14.50;40.60;;;;;;5000579;28;20449;-58
2022/01/19 13:39:03;;;;;;;9.60;7.97;;;14.40;40.60;;;;;;5002034;28;20449;-58
2022/01/19 13:41:29;;;;;;;10.70;8.37;;;14.50;40.80;;;;;;4999070;28;20822;-49
2022/01/19 13:44:04;;;;;;;10.10;8.30;;;14.30;40.90;;;;;;5000362;28;20425;-52
2022/01/19 13:46:32;;;;;;;9.83;8.40;;;14.30;41.20;;;;;;5000660;28;20236;-52
2022/01/19 13:49:00;;;;;;;10.20;9.13;;;14.20;41.20;;;;;;5002185;28;20453;-49
2022/01/19 13:51:26;;;;;;;12.30;8.50;;;14.10;41.20;;;;;;4999211;28;20449;-49
2022/01/19 13:53:53;;;;;;;11.30;8.33;;;14.10;41.20;;;;;;5003709;28;20524;-50
2022/01/19 13:56:37;;;;;;;8.97;8.07;;;14.10;41.10;;;;;;4997669;28;20433;-49
2022/01/19 13:59:18;;;;;;;13.13;8.60;;;14.10;41.20;;;;;;5001619;28;20432;-51
2022/01/19 14:02:01;;;;;;;12.70;7.77;;;14.10;41.30;;;;;;5006364;28;20963;-50
2022/01/19 14:04:32;;;;;;;11.67;8.47;;;13.90;41.30;;;;;;5009056;28;20503;-49
2022/01/19 14:07:16;;;;;;;9.13;7.83;;;13.90;41.40;;;;;;5002875;28;20499;-50
2022/01/19 14:09:42;;;;;;;9.73;8.57;;;13.90;41.80;;;;;;5007866;28;21013;-54
2022/01/19 14:12:18;;;;;;;10.30;9.10;;;14.00;41.90;;;;;;5005436;28;20433;-53
2022/01/19 14:14:55;;;;;;;11.33;9.17;;;14.10;42.00;;;;;;4998986;28;20751;-54
2022/01/19 14:17:34;;;;;;;10.30;8.73;;;14.10;42.10;;;;;;5006525;28;20433;-53
2022/01/19 14:20:00;;;;;;;12.70;8.70;;;14.20;41.90;;;;;;5010509;28;20448;-53
2022/01/19 14:22:32;;;;;;;12.37;9.00;;;14.10;41.60;;;;;;5008354;28;20490;-54
2022/01/19 14:25:07;;;;;;;13.40;8.67;;;14.20;41.60;;;;;;5009567;28;20465;-52
2022/01/19 14:27:42;;;;;;;12.53;8.47;;;14.00;41.80;;;;;;5005744;28;20454;-54
2022/01/19 14:30:14;;;;;;;14.40;8.90;;;14.00;42.00;;;;;;5010002;28;20454;-54